Home > Products > Valid Products > TAF

000
FTUS44 KMAF 280520
TAFMAF
TAF
KMAF 280520Z 2806/2906 16011KT P6SM FEW100 SCT250=



000
FTUS44 KMAF 272323
TAFMAF
TAF
KMAF 272323Z 2800/2824 16011KT P6SM FEW100 SCT250=



000
FTUS44 KMAF 272323
TAFMAF
TAF
KMAF 272323Z 2800/2824 16011KT P6SM FEW100 SCT250=



000
FTUS44 KMAF 272101 AAB
TAFMAF
TAF AMD
KMAF 272101Z 2721/2818 16011KT P6SM FEW100 SCT250=



000
FTUS44 KMAF 271721
TAFMAF
TAF
KMAF 271721Z 2718/2818 17010KT P6SM FEW100 SCT250=



000
FTUS44 KMAF 271721
TAFMAF
TAF
KMAF 271721Z 2718/2818 17010KT P6SM FEW100 SCT250=



000
FTUS44 KMAF 271124
TAFMAF
TAF
KMAF 271124Z 2712/2812 17010KT P6SM FEW100 SCT250=



000
FTUS44 KMAF 270523
TAFMAF
TAF
KMAF 270523Z 2706/2806 15010KT P6SM FEW100 SCT250=



000
FTUS44 KMAF 270523
TAFMAF
TAF
KMAF 270523Z 2706/2806 15010KT P6SM FEW100 SCT250=



000
FTUS44 KMAF 270222 AAB
TAFMAF
TAF AMD
KMAF 270222Z 2702/2724 13010KT P6SM FEW100=



000
FTUS44 KMAF 262320
TAFMAF
TAF
KMAF 262320Z 2700/2724 16010KT P6SM FEW100=



000
FTUS44 KMAF 262320
TAFMAF
TAF
KMAF 262320Z 2700/2724 16010KT P6SM FEW100=



000
FTUS44 KMAF 262006 AAB
TAFMAF
TAF AMD
KMAF 262006Z 2620/2718 15010KT P6SM FEW100=



000
FTUS44 KMAF 261722
TAFMAF
TAF
KMAF 261722Z 2618/2718 17009KT P6SM FEW250
     FM262000 15011G19KT P6SM FEW100 SCT250
     FM270100 16012KT P6SM FEW250=



000
FTUS44 KMAF 261722
TAFMAF
TAF
KMAF 261722Z 2618/2718 17009KT P6SM FEW250
     FM262000 15011G19KT P6SM FEW100 SCT250
     FM270100 16012KT P6SM FEW250=



000
FTUS44 KMAF 261121
TAFMAF
TAF
KMAF 261121Z 2612/2712 17009KT P6SM FEW250
     FM261500 15011G19KT P6SM FEW100 SCT250
     FM270100 16012KT P6SM FEW250=



000
FTUS44 KMAF 260520
TAFMAF
TAF
KMAF 260520Z 2606/2706 16008KT P6SM FEW250
     FM261500 15011G19KT P6SM FEW100 SCT250=



000
FTUS44 KMAF 260520
TAFMAF
TAF
KMAF 260520Z 2606/2706 16008KT P6SM FEW250
     FM261500 15011G19KT P6SM FEW100 SCT250=



000
FTUS44 KMAF 252320
TAFMAF
TAF
KMAF 252320Z 2600/2624 15010KT P6SM FEW100=



000
FTUS44 KMAF 251723
TAFMAF
TAF
KMAF 251723Z 2518/2618 16011KT P6SM FEW200=



000
FTUS44 KMAF 251125
TAFMAF
TAF
KMAF 251125Z 2512/2612 13010KT P6SM SKC
     FM251800 16010G18KT P6SM FEW200=



000
FTUS44 KMAF 251125
TAFMAF
TAF
KMAF 251125Z 2512/2612 13010KT P6SM SKC
     FM251800 16010G18KT P6SM FEW200=



    US Dept of Commerce
    National Oceanic and Atmospheric Administration
    National Weather Service
    1325 East West Highway
    Silver Spring, MD 20910
    Page Author: NWS Internet Services Team
Disclaimer
Information Quality
Credits
Glossary
Privacy Policy
Freedom of Information Act (FOIA)
About Us
Career Opportunities